createdAt,value
2018-11-05T00:02:03.528Z,58.93
2018-11-05T00:04:30.264Z,59.40
2018-11-05T00:06:56.965Z,59.54
2018-11-05T00:09:24.473Z,59.44
2018-11-05T00:11:51.984Z,58.94
2018-11-05T00:14:18.688Z,59.42
2018-11-05T00:16:45.405Z,59.24
2018-11-05T00:19:12.160Z,59.04
2018-11-05T00:21:38.840Z,58.56
2018-11-05T00:24:06.470Z,59.53
2018-11-05T00:26:33.899Z,59.32
2018-11-05T00:29:00.572Z,59.07
2018-11-05T00:31:27.406Z,59.02
2018-11-05T00:33:54.101Z,59.60
2018-11-05T00:36:20.878Z,59.36
2018-11-05T00:38:47.570Z,59.67
2018-11-05T00:41:15.935Z,59.44
2018-11-05T00:43:44.269Z,59.26
2018-11-05T00:46:11.002Z,59.45
2018-11-05T00:48:37.716Z,59.35
2018-11-05T00:51:05.318Z,59.36
2018-11-05T00:53:33.023Z,59.26
2018-11-05T00:56:00.518Z,58.80
2018-11-05T00:58:28.312Z,58.28
2018-11-05T01:00:56.150Z,58.80
2018-11-05T01:03:22.972Z,58.76
2018-11-05T01:05:49.880Z,58.58
2018-11-05T01:08:16.703Z,58.72
2018-11-05T01:10:45.691Z,58.76
2018-11-05T01:13:12.405Z,58.72
2018-11-05T01:15:39.251Z,58.97
2018-11-05T01:18:06.045Z,59.71
2018-11-05T01:20:32.867Z,58.69
2018-11-05T01:22:59.773Z,58.81
2018-11-05T01:25:26.467Z,59.03
2018-11-05T01:27:54.086Z,58.91
2018-11-05T01:30:20.806Z,58.78
2018-11-05T01:32:48.824Z,59.05
2018-11-05T01:35:15.675Z,58.97
2018-11-05T01:37:42.699Z,59.02
2018-11-05T01:40:11.851Z,59.20
2018-11-05T01:42:38.812Z,59.26
2018-11-05T01:45:06.998Z,58.88
2018-11-05T01:47:33.714Z,58.89
2018-11-05T01:50:00.438Z,59.56
2018-11-05T01:52:27.958Z,58.92
2018-11-05T01:54:54.698Z,59.25
2018-11-05T01:57:21.543Z,58.68
2018-11-05T01:59:48.379Z,58.88
2018-11-05T02:02:15.224Z,59.16
2018-11-05T02:04:42.066Z,59.19
2018-11-05T02:07:08.908Z,59.20
2018-11-05T02:09:35.738Z,59.08
2018-11-05T02:12:02.479Z,59.31
2018-11-05T02:14:29.258Z,59.36
2018-11-05T02:16:56.773Z,58.72
2018-11-05T02:19:23.635Z,59.04
2018-11-05T02:21:51.134Z,58.75
2018-11-05T02:24:17.832Z,58.85
2018-11-05T02:26:44.996Z,59.13
2018-11-05T02:29:11.711Z,59.33
2018-11-05T02:31:38.549Z,59.81
2018-11-05T02:34:05.335Z,58.67
2018-11-05T02:36:32.056Z,59.14
2018-11-05T02:38:58.770Z,58.68
2018-11-05T02:41:25.621Z,58.98
2018-11-05T02:43:52.472Z,59.59
2018-11-05T02:46:19.373Z,59.07
2018-11-05T02:48:47.163Z,59.34
2018-11-05T02:51:14.190Z,58.98
2018-11-05T02:53:40.978Z,59.23
2018-11-05T02:56:08.148Z,58.97
2018-11-05T02:58:35.122Z,59.12
2018-11-05T03:01:01.852Z,58.99
2018-11-05T03:03:28.717Z,58.57
2018-11-05T03:05:55.562Z,58.65
2018-11-05T03:08:22.447Z,58.98
2018-11-05T03:10:49.281Z,59.04
2018-11-05T03:13:16.108Z,59.20
2018-11-05T03:15:44.366Z,58.90
2018-11-05T03:18:11.247Z,58.49
2018-11-05T03:20:38.072Z,58.58
2018-11-05T03:23:04.919Z,58.70
2018-11-05T03:25:31.623Z,58.49
2018-11-05T03:27:58.439Z,58.60
2018-11-05T03:30:25.263Z,58.20
2018-11-05T03:32:52.073Z,57.93
2018-11-05T03:35:18.926Z,59.06
2018-11-05T03:37:46.877Z,58.08
2018-11-05T03:40:14.483Z,58.28
2018-11-05T03:42:41.836Z,58.30
2018-11-05T03:45:09.646Z,58.27
2018-11-05T03:47:36.532Z,58.54
2018-11-05T03:50:03.781Z,58.38
2018-11-05T03:52:30.614Z,58.42
2018-11-05T03:54:58.081Z,58.51
2018-11-05T03:57:24.764Z,58.30
2018-11-05T03:59:51.445Z,58.48
2018-11-05T04:02:18.132Z,58.49
2018-11-05T04:04:44.985Z,58.34
2018-11-05T04:07:12.589Z,58.06
2018-11-05T04:09:39.283Z,58.05
2018-11-05T04:12:06.851Z,58.23
2018-11-05T04:14:34.435Z,58.21
2018-11-05T04:17:01.127Z,58.37
2018-11-05T04:19:27.961Z,58.49
2018-11-05T04:21:54.790Z,58.47
2018-11-05T04:24:21.741Z,57.75
2018-11-05T04:26:48.594Z,58.31
2018-11-05T04:29:16.363Z,58.60
2018-11-05T04:31:43.481Z,58.03
2018-11-05T04:34:10.900Z,58.06
2018-11-05T04:36:37.752Z,58.17
2018-11-05T04:39:07.545Z,58.21
2018-11-05T04:41:34.275Z,58.88
2018-11-05T04:44:01.160Z,57.77
2018-11-05T04:46:28.164Z,58.87
2018-11-05T04:48:55.039Z,58.08
2018-11-05T04:51:21.866Z,57.73
2018-11-05T04:53:49.542Z,58.00
2018-11-05T04:56:16.404Z,57.96
2018-11-05T04:58:44.405Z,58.11
2018-11-05T05:01:11.226Z,57.96
2018-11-05T05:03:39.056Z,57.86
2018-11-05T05:06:05.981Z,57.88
2018-11-05T05:08:32.749Z,57.46
2018-11-05T05:10:59.431Z,57.44
2018-11-05T05:13:26.352Z,57.41
2018-11-05T05:15:53.204Z,57.77
2018-11-05T05:18:20.869Z,57.72
2018-11-05T05:20:47.838Z,58.02
2018-11-05T05:23:15.023Z,58.30
2018-11-05T05:25:41.915Z,57.80
2018-11-05T05:28:09.601Z,57.64
2018-11-05T05:30:36.463Z,57.40
2018-11-05T05:33:03.335Z,58.07
2018-11-05T05:35:31.093Z,57.26
2018-11-05T05:37:57.966Z,57.40
2018-11-05T05:40:24.788Z,57.46
2018-11-05T05:42:51.666Z,58.29
2018-11-05T05:45:18.578Z,57.49
2018-11-05T05:47:45.458Z,58.81
2018-11-05T05:50:14.410Z,57.81
2018-11-05T05:52:42.319Z,58.30
2018-11-05T05:55:09.291Z,57.83
2018-11-05T05:57:37.019Z,58.19
2018-11-05T06:00:03.980Z,58.03
2018-11-05T06:02:30.808Z,57.34
2018-11-05T06:04:57.660Z,58.13
2018-11-05T06:07:24.629Z,57.29
2018-11-05T06:09:58.643Z,57.42
2018-11-05T06:12:28.131Z,57.83
2018-11-05T06:14:54.974Z,57.00
2018-11-05T06:17:21.943Z,56.69
2018-11-05T06:19:48.743Z,56.12
2018-11-05T06:22:16.423Z,56.29
2018-11-05T06:24:44.084Z,56.41
2018-11-05T06:27:10.796Z,56.41
2018-11-05T06:29:37.705Z,56.62
2018-11-05T06:32:04.542Z,56.15
2018-11-05T06:34:31.287Z,56.36
2018-11-05T06:36:58.958Z,56.14
2018-11-05T06:39:25.813Z,56.49
2018-11-05T06:41:53.518Z,56.64
2018-11-05T06:44:21.384Z,56.33
2018-11-05T06:46:49.112Z,56.83
2018-11-05T06:49:15.969Z,56.77
2018-11-05T06:51:42.727Z,56.57
2018-11-05T06:54:09.596Z,56.82
2018-11-05T06:56:36.458Z,56.45
2018-11-05T06:59:03.219Z,56.20
2018-11-05T07:01:30.821Z,56.47
2018-11-05T07:03:57.630Z,56.39
2018-11-05T07:06:24.432Z,56.78
2018-11-05T07:08:51.285Z,56.80
2018-11-05T07:11:18.170Z,56.82
2018-11-05T07:13:45.240Z,56.36
2018-11-05T07:16:13.559Z,56.67
2018-11-05T07:18:40.880Z,56.84
2018-11-05T07:21:07.554Z,56.67
2018-11-05T07:23:34.718Z,56.83
2018-11-05T07:26:01.565Z,56.66
2018-11-05T07:28:28.411Z,56.46
2018-11-05T07:30:55.263Z,56.30
2018-11-05T07:33:22.204Z,56.62
2018-11-05T07:35:49.081Z,56.46
2018-11-05T07:38:16.046Z,56.64
2018-11-05T07:40:42.867Z,56.84
2018-11-05T07:43:10.161Z,56.26
2018-11-05T07:45:37.002Z,56.33
2018-11-05T07:48:03.887Z,56.63
2018-11-05T07:50:30.752Z,56.49
2018-11-05T07:52:57.603Z,56.59
2018-11-05T07:55:25.188Z,56.78
2018-11-05T07:57:52.366Z,56.39
2018-11-05T08:00:24.644Z,55.90
2018-11-05T08:02:53.932Z,56.88
2018-11-05T08:05:21.639Z,56.54
2018-11-05T08:07:48.796Z,56.29
2018-11-05T08:10:16.602Z,56.43
2018-11-05T08:12:44.236Z,56.20
2018-11-05T08:15:14.461Z,56.59
2018-11-05T08:17:44.352Z,56.33
2018-11-05T08:20:12.149Z,57.24
2018-11-05T08:22:39.160Z,56.49
2018-11-05T08:25:06.047Z,56.36
2018-11-05T08:27:32.925Z,56.19
2018-11-05T08:29:59.927Z,56.58
2018-11-05T08:32:26.853Z,56.29
2018-11-05T08:34:53.721Z,56.30
2018-11-05T08:37:20.592Z,56.64
2018-11-05T08:39:47.646Z,56.33
2018-11-05T08:42:15.130Z,56.57
2018-11-05T08:44:42.076Z,56.33
2018-11-05T08:47:08.930Z,56.22
2018-11-05T08:49:36.188Z,56.15
2018-11-05T08:52:03.106Z,56.51
2018-11-05T08:54:30.023Z,56.62
2018-11-05T08:56:57.017Z,56.71
2018-11-05T08:59:23.836Z,56.08
2018-11-05T09:01:50.683Z,56.16
2018-11-05T09:04:18.180Z,56.72
2018-11-05T09:06:44.997Z,56.59
2018-11-05T09:09:11.817Z,56.45
2018-11-05T09:11:39.041Z,56.49
2018-11-05T09:14:05.605Z,56.29
2018-11-05T09:16:32.418Z,56.19
2018-11-05T09:18:59.296Z,56.06
2018-11-05T09:21:26.236Z,56.09
2018-11-05T09:23:53.075Z,56.11
2018-11-05T09:26:20.709Z,56.16
2018-11-05T09:28:47.566Z,56.41
2018-11-05T09:31:15.196Z,56.38
2018-11-05T09:33:42.157Z,56.61
2018-11-05T09:36:09.007Z,56.68
2018-11-05T09:38:35.837Z,56.05
2018-11-05T09:41:03.671Z,56.21
2018-11-05T09:43:30.515Z,56.48
2018-11-05T09:45:57.346Z,56.54
2018-11-05T09:48:24.182Z,56.61
2018-11-05T09:50:51.295Z,56.34
2018-11-05T09:53:17.952Z,56.19
2018-11-05T09:55:46.676Z,56.17
2018-11-05T09:58:14.039Z,56.60
2018-11-05T10:00:41.776Z,56.21
2018-11-05T10:03:15.420Z,56.49
2018-11-05T10:05:42.101Z,56.38
2018-11-05T10:08:09.007Z,56.58
2018-11-05T10:10:36.706Z,56.31
2018-11-05T10:13:03.567Z,56.44
2018-11-05T10:15:31.353Z,56.29
2018-11-05T10:17:58.266Z,56.10
2018-11-05T10:20:25.423Z,56.21
2018-11-05T10:22:52.321Z,56.00
2018-11-05T10:25:19.386Z,56.37
2018-11-05T10:27:46.726Z,56.16
2018-11-05T10:30:17.113Z,56.26
2018-11-05T10:32:45.249Z,56.11
2018-11-05T10:35:14.758Z,56.53
2018-11-05T10:37:41.575Z,56.22
2018-11-05T10:40:09.527Z,56.20
2018-11-05T10:42:36.365Z,56.34
2018-11-05T10:45:03.309Z,56.14
2018-11-05T10:47:30.125Z,55.82
2018-11-05T10:49:56.961Z,56.29
2018-11-05T10:52:23.845Z,55.92
2018-11-05T10:54:50.738Z,56.22
2018-11-05T10:57:17.628Z,56.02
2018-11-05T10:59:45.122Z,56.42
2018-11-05T11:02:17.619Z,55.96
2018-11-05T11:04:45.336Z,56.03
2018-11-05T11:07:13.749Z,56.33
2018-11-05T11:09:40.657Z,56.38
2018-11-05T11:12:20.255Z,55.90
2018-11-05T11:14:47.749Z,56.25
2018-11-05T11:17:15.737Z,56.23
2018-11-05T11:20:03.221Z,56.59
2018-11-05T11:22:31.056Z,56.66
2018-11-05T11:24:57.919Z,56.84
2018-11-05T11:27:25.816Z,56.44
2018-11-05T11:29:53.441Z,55.87
2018-11-05T11:32:21.115Z,55.97
2018-11-05T11:34:47.996Z,57.14
2018-11-05T11:37:16.620Z,56.94
2018-11-05T11:42:39.762Z,56.53
2018-11-05T11:45:06.939Z,56.57
2018-11-05T11:47:33.889Z,56.85
2018-11-05T11:50:01.738Z,56.71
2018-11-05T11:52:28.708Z,56.14
2018-11-05T11:54:55.542Z,55.89
2018-11-05T11:57:22.387Z,56.57
2018-11-05T11:59:49.900Z,57.08
2018-11-05T12:02:18.189Z,56.89
2018-11-05T12:04:45.790Z,56.35
2018-11-05T12:07:13.686Z,57.16
2018-11-05T12:09:40.511Z,56.31
2018-11-05T12:12:09.852Z,57.29
2018-11-05T12:14:37.774Z,56.98
2018-11-05T12:17:05.629Z,57.44
2018-11-05T12:19:33.777Z,56.57
2018-11-05T12:22:01.684Z,56.44
2018-11-05T12:24:29.388Z,57.16
2018-11-05T12:26:56.202Z,56.09
2018-11-05T12:29:23.808Z,57.13
2018-11-05T12:31:51.614Z,57.91
2018-11-05T12:34:19.456Z,57.73
2018-11-05T12:36:46.306Z,57.61
2018-11-05T12:39:14.749Z,57.44
2018-11-05T12:41:42.520Z,56.49
2018-11-05T12:44:10.754Z,57.82
2018-11-05T12:46:39.255Z,57.42
2018-11-05T12:49:06.106Z,57.41
2018-11-05T12:51:33.759Z,57.26
2018-11-05T12:54:01.721Z,57.84
2018-11-05T12:56:29.476Z,57.34
2018-11-05T12:58:57.524Z,58.13
2018-11-05T13:01:25.297Z,57.83
2018-11-05T13:03:53.102Z,57.67
2018-11-05T13:06:20.881Z,57.05
2018-11-05T13:08:48.746Z,57.12
2018-11-05T13:11:16.436Z,56.59
2018-11-05T13:13:44.070Z,57.29
2018-11-05T13:16:11.844Z,57.50
2018-11-05T13:18:38.665Z,57.64
2018-11-05T13:21:06.489Z,58.03
2018-11-05T13:23:37.773Z,57.61
2018-11-05T13:26:04.630Z,58.47
2018-11-05T13:28:32.453Z,58.32
2018-11-05T13:30:59.328Z,57.37
2018-11-05T13:33:27.191Z,57.91
2018-11-05T13:35:54.088Z,57.96
2018-11-05T13:38:21.898Z,58.22
2018-11-05T13:40:48.751Z,58.00
2018-11-05T13:43:15.762Z,58.20
2018-11-05T13:45:44.166Z,58.68
2018-11-05T13:48:11.807Z,58.29
2018-11-05T13:50:38.466Z,58.27
2018-11-05T13:53:06.239Z,58.08
2018-11-05T13:55:33.056Z,58.31
2018-11-05T13:57:59.893Z,58.37
2018-11-05T14:00:26.808Z,58.10
2018-11-05T14:02:53.720Z,58.53
2018-11-05T14:05:20.554Z,57.41
2018-11-05T14:07:47.389Z,57.65
2018-11-05T14:10:15.792Z,57.20
2018-11-05T14:12:45.049Z,58.30
2018-11-05T14:15:12.764Z,57.29
2018-11-05T14:17:40.227Z,57.10
2018-11-05T14:20:07.809Z,56.77
2018-11-05T14:22:35.099Z,56.77
2018-11-05T14:25:02.999Z,56.08
2018-11-05T14:27:30.133Z,56.13
2018-11-05T14:29:57.348Z,56.15
2018-11-05T14:32:24.710Z,57.85
2018-11-05T14:34:52.502Z,56.60
2018-11-05T14:37:20.724Z,55.80
2018-11-05T14:39:47.581Z,55.82
2018-11-05T14:42:15.264Z,55.93
2018-11-05T14:44:43.707Z,56.13
2018-11-05T14:47:11.555Z,55.90
2018-11-05T14:49:38.416Z,56.44
2018-11-05T14:52:06.318Z,55.57
2018-11-05T14:54:33.158Z,55.75
2018-11-05T14:57:00.909Z,55.83
2018-11-05T14:59:27.843Z,56.44
2018-11-05T15:02:00.396Z,55.41
2018-11-05T15:04:28.303Z,55.30
2018-11-05T15:06:55.124Z,55.42
2018-11-05T15:09:22.918Z,55.14
2018-11-05T15:11:49.875Z,55.40
2018-11-05T15:14:17.669Z,54.92
2018-11-05T15:16:45.158Z,55.31
2018-11-05T15:19:13.095Z,55.17
2018-11-05T15:21:41.096Z,55.29
2018-11-05T15:24:08.799Z,55.24
2018-11-05T15:26:35.727Z,56.21
2018-11-05T15:29:02.551Z,55.72
2018-11-05T15:31:29.448Z,56.29
2018-11-05T15:33:57.369Z,56.76
2018-11-05T15:36:25.219Z,56.51
2018-11-05T15:38:52.281Z,55.90
2018-11-05T15:41:20.058Z,55.76
2018-11-05T15:43:47.876Z,56.43
2018-11-05T15:46:15.667Z,56.75
2018-11-05T15:48:43.653Z,56.51
2018-11-05T15:51:10.611Z,56.09
2018-11-05T15:53:38.331Z,56.00
2018-11-05T15:56:05.928Z,56.33
2018-11-05T15:58:33.174Z,56.60
2018-11-05T16:01:00.892Z,56.94
2018-11-05T16:03:27.845Z,56.56
2018-11-05T16:05:54.673Z,57.03
2018-11-05T16:08:22.357Z,57.42
2018-11-05T16:10:50.062Z,57.58
2018-11-05T16:13:16.893Z,57.88
2018-11-05T16:15:44.744Z,57.36
2018-11-05T16:18:12.431Z,56.29
2018-11-05T16:20:39.272Z,56.86
2018-11-05T16:23:07.114Z,57.58
2018-11-05T16:25:34.033Z,57.67
2018-11-05T16:28:00.857Z,57.20
2018-11-05T16:30:27.711Z,57.24
2018-11-05T16:32:54.570Z,57.05
2018-11-05T16:35:21.441Z,57.30
2018-11-05T16:37:48.304Z,56.84
2018-11-05T16:40:16.369Z,56.66
2018-11-05T16:42:44.496Z,57.58
2018-11-05T16:45:11.559Z,57.21
2018-11-05T16:47:39.081Z,58.06
2018-11-05T16:50:08.729Z,57.80
2018-11-05T16:52:35.553Z,57.73
2018-11-05T16:55:02.437Z,58.01
2018-11-05T16:57:29.314Z,57.68
2018-11-05T16:59:56.164Z,56.93
2018-11-05T17:02:24.108Z,57.88
2018-11-05T17:04:51.809Z,57.54
2018-11-05T17:07:18.630Z,58.46
2018-11-05T17:09:45.493Z,58.24
2018-11-05T17:12:14.001Z,58.08
2018-11-05T17:14:40.883Z,58.03
2018-11-05T17:17:07.714Z,57.85
2018-11-05T17:19:34.588Z,57.56
2018-11-05T17:22:02.373Z,57.47
2018-11-05T17:24:29.470Z,57.51
2018-11-05T17:26:56.418Z,56.93
2018-11-05T17:29:24.252Z,57.16
2018-11-05T17:31:52.175Z,57.18
2018-11-05T17:34:19.033Z,56.83
2018-11-05T17:36:46.805Z,56.48
2018-11-05T17:39:14.532Z,57.11
2018-11-05T17:41:41.896Z,56.63
2018-11-05T17:44:10.298Z,56.98
2018-11-05T17:46:37.161Z,56.95
2018-11-05T17:49:05.151Z,57.26
2018-11-05T17:51:32.053Z,56.38
2018-11-05T17:53:59.069Z,56.64
2018-11-05T17:56:26.826Z,56.91
2018-11-05T17:58:53.727Z,57.09
2018-11-05T18:01:20.630Z,56.88
2018-11-05T18:03:47.514Z,56.87
2018-11-05T18:06:15.113Z,56.77
2018-11-05T18:08:41.981Z,56.41
2018-11-05T18:11:09.620Z,56.48
2018-11-05T18:13:36.461Z,56.40
2018-11-05T18:16:04.740Z,56.08
2018-11-05T18:18:31.630Z,56.16
2018-11-05T18:20:59.267Z,56.27
2018-11-05T18:23:27.065Z,56.29
2018-11-05T18:25:53.924Z,56.13
2018-11-05T18:28:21.804Z,56.51
2018-11-05T18:30:49.542Z,56.49
2018-11-05T18:33:16.427Z,56.21
2018-11-05T18:35:43.872Z,55.93
2018-11-05T18:38:11.565Z,55.99
2018-11-05T18:40:38.453Z,56.64
2018-11-05T18:43:06.187Z,55.98
2018-11-05T18:45:34.129Z,56.18
2018-11-05T18:48:00.888Z,55.91
2018-11-05T18:50:27.725Z,55.86
2018-11-05T18:52:54.564Z,56.36
2018-11-05T18:55:21.504Z,55.72
2018-11-05T18:57:48.334Z,55.40
2018-11-05T19:00:18.329Z,55.86
2018-11-05T19:02:45.300Z,56.42
2018-11-05T19:05:12.165Z,55.12
2018-11-05T19:07:39.009Z,56.13
2018-11-05T19:10:05.847Z,55.42
2018-11-05T19:12:32.696Z,56.08
2018-11-05T19:14:59.585Z,55.90
2018-11-05T19:17:26.424Z,55.09
2018-11-05T19:19:53.255Z,55.30
2018-11-05T19:22:20.198Z,55.27
2018-11-05T19:24:47.868Z,55.24
2018-11-05T19:27:16.278Z,55.08
2018-11-05T19:29:44.740Z,55.68
2018-11-05T19:32:12.650Z,54.84
2018-11-05T19:34:39.495Z,54.82
2018-11-05T19:37:06.910Z,55.44
2018-11-05T19:39:34.744Z,54.39
2018-11-05T19:42:01.697Z,55.20
2018-11-05T19:44:29.400Z,54.41
2018-11-05T19:46:56.237Z,54.90
2018-11-05T19:49:23.112Z,54.25
2018-11-05T19:51:49.949Z,54.62
2018-11-05T19:54:16.825Z,54.61
2018-11-05T19:56:45.674Z,55.04
2018-11-05T19:59:12.567Z,54.79
2018-11-05T20:01:40.460Z,54.70
2018-11-05T20:04:07.347Z,54.71
2018-11-05T20:06:34.241Z,54.25
2018-11-05T20:09:01.090Z,54.33
2018-11-05T20:11:28.956Z,54.16
2018-11-05T20:13:56.663Z,54.47
2018-11-05T20:16:30.367Z,54.69
2018-11-05T20:18:58.198Z,54.42
2018-11-05T20:21:25.025Z,54.72
2018-11-05T20:23:51.883Z,54.02
2018-11-05T20:26:18.853Z,54.49
2018-11-05T20:28:46.582Z,54.20
2018-11-05T20:31:14.558Z,53.98
2018-11-05T20:33:42.441Z,54.26
2018-11-05T20:36:09.244Z,54.30
2018-11-05T20:38:36.104Z,54.72
2018-11-05T20:41:02.944Z,54.64
2018-11-05T20:43:29.833Z,53.93
2018-11-05T20:45:57.482Z,53.36
2018-11-05T20:48:24.339Z,54.10
2018-11-05T20:50:52.013Z,53.71
2018-11-05T20:53:19.824Z,53.87
2018-11-05T20:55:46.709Z,53.67
2018-11-05T20:58:14.451Z,54.13
2018-11-05T21:00:41.464Z,54.00
2018-11-05T21:03:08.385Z,54.21
2018-11-05T21:05:35.246Z,53.62
2018-11-05T21:08:03.032Z,53.50
2018-11-05T21:10:30.778Z,53.46
2018-11-05T21:12:57.599Z,53.65
2018-11-05T21:15:24.461Z,53.39
2018-11-05T21:17:51.758Z,53.30
2018-11-05T21:20:18.612Z,53.74
2018-11-05T21:22:47.039Z,53.31
2018-11-05T21:25:14.306Z,52.97
2018-11-05T21:27:42.055Z,53.71
2018-11-05T21:30:09.466Z,53.87
2018-11-05T21:32:37.687Z,53.00
2018-11-05T21:35:04.478Z,53.84
2018-11-05T21:37:32.180Z,53.48
2018-11-05T21:39:59.958Z,53.18
2018-11-05T21:42:26.799Z,53.82
2018-11-05T21:44:53.647Z,53.33
2018-11-05T21:47:20.543Z,53.40
2018-11-05T21:49:47.471Z,53.71
2018-11-05T21:52:15.095Z,53.48
2018-11-05T21:54:41.971Z,53.37
2018-11-05T21:57:08.877Z,52.80
2018-11-05T21:59:36.497Z,53.22
2018-11-05T22:02:03.515Z,53.43
2018-11-05T22:04:30.436Z,53.25
2018-11-05T22:06:57.294Z,53.39
2018-11-05T22:09:24.132Z,53.32
2018-11-05T22:11:50.965Z,53.29
2018-11-05T22:14:18.636Z,53.85
2018-11-05T22:16:45.519Z,53.43
2018-11-05T22:19:14.313Z,53.51
2018-11-05T22:21:41.184Z,53.37
2018-11-05T22:24:09.053Z,53.41
2018-11-05T22:26:36.065Z,53.37
2018-11-05T22:29:04.026Z,53.12
2018-11-05T22:31:30.927Z,53.13
2018-11-05T22:33:57.764Z,53.25
2018-11-05T22:36:24.630Z,53.02
2018-11-05T22:38:51.491Z,52.55
2018-11-05T22:41:18.339Z,53.18
2018-11-05T22:43:46.011Z,53.79
2018-11-05T22:46:12.798Z,53.77
2018-11-05T22:48:39.630Z,53.47
2018-11-05T22:51:06.498Z,53.41
2018-11-05T22:53:34.272Z,53.69
2018-11-05T22:56:01.102Z,53.42
2018-11-05T22:58:27.930Z,53.42
2018-11-05T23:01:01.185Z,53.67
2018-11-05T23:03:29.959Z,54.23
2018-11-05T23:05:58.204Z,53.35
2018-11-05T23:08:26.346Z,53.24
2018-11-05T23:10:53.172Z,53.17
2018-11-05T23:13:21.018Z,53.56
2018-11-05T23:15:47.862Z,53.56
2018-11-05T23:18:15.568Z,53.82
2018-11-05T23:20:44.011Z,53.38
2018-11-05T23:23:10.853Z,53.25
2018-11-05T23:25:37.666Z,53.51
2018-11-05T23:28:05.440Z,53.38
2018-11-05T23:30:32.289Z,53.25
2018-11-05T23:32:59.172Z,53.32
2018-11-05T23:35:26.020Z,53.05
2018-11-05T23:37:52.868Z,53.21
2018-11-05T23:40:19.703Z,53.20
2018-11-05T23:42:46.525Z,52.91
2018-11-05T23:45:14.529Z,52.72
2018-11-05T23:47:42.128Z,53.09
2018-11-05T23:50:10.443Z,52.93
2018-11-05T23:52:38.159Z,53.41
2018-11-05T23:55:05.956Z,53.38
2018-11-05T23:57:32.801Z,53.00
